sensor_id;sensor_type;location;lat;lon;timestamp;P1;durP1;ratioP1;P2;durP2;ratioP2
64894;SDS011;51588;53.702;10.208;2023-04-15T00:00:01;1.67;;;1.40;;
64894;SDS011;51588;53.702;10.208;2023-04-15T00:02:28;1.60;;;1.50;;
64894;SDS011;51588;53.702;10.208;2023-04-15T00:04:54;2.07;;;1.60;;
64894;SDS011;51588;53.702;10.208;2023-04-15T00:07:22;1.87;;;1.60;;
64894;SDS011;51588;53.702;10.208;2023-04-15T00:09:48;1.67;;;1.57;;
64894;SDS011;51588;53.702;10.208;2023-04-15T00:12:19;2.00;;;1.80;;
64894;SDS011;51588;53.702;10.208;2023-04-15T00:14:45;3.00;;;1.60;;
64894;SDS011;51588;53.702;10.208;2023-04-15T00:17:12;1.60;;;1.50;;
64894;SDS011;51588;53.702;10.208;2023-04-15T00:19:38;1.60;;;1.40;;
64894;SDS011;51588;53.702;10.208;2023-04-15T00:22:05;1.63;;;1.53;;
64894;SDS011;51588;53.702;10.208;2023-04-15T00:24:33;1.77;;;1.67;;
64894;SDS011;51588;53.702;10.208;2023-04-15T00:27:00;1.30;;;1.20;;
64894;SDS011;51588;53.702;10.208;2023-04-15T00:29:26;1.60;;;1.50;;
64894;SDS011;51588;53.702;10.208;2023-04-15T00:31:53;1.70;;;1.60;;
64894;SDS011;51588;53.702;10.208;2023-04-15T00:34:20;1.83;;;1.70;;
64894;SDS011;51588;53.702;10.208;2023-04-15T00:36:46;1.30;;;1.20;;
64894;SDS011;51588;53.702;10.208;2023-04-15T00:39:13;1.80;;;1.50;;
64894;SDS011;51588;53.702;10.208;2023-04-15T00:41:41;1.70;;;1.60;;
64894;SDS011;51588;53.702;10.208;2023-04-15T00:44:08;1.30;;;1.20;;
64894;SDS011;51588;53.702;10.208;2023-04-15T00:46:35;1.50;;;1.40;;
64894;SDS011;51588;53.702;10.208;2023-04-15T00:49:02;1.57;;;1.30;;
64894;SDS011;51588;53.702;10.208;2023-04-15T00:51:29;2.20;;;1.73;;
64894;SDS011;51588;53.702;10.208;2023-04-15T00:53:57;1.60;;;1.50;;
64894;SDS011;51588;53.702;10.208;2023-04-15T00:56:24;1.70;;;1.60;;
64894;SDS011;51588;53.702;10.208;2023-04-15T00:58:52;1.60;;;1.50;;
64894;SDS011;51588;53.702;10.208;2023-04-15T01:01:19;1.43;;;1.33;;
64894;SDS011;51588;53.702;10.208;2023-04-15T01:03:49;1.60;;;1.50;;
64894;SDS011;51588;53.702;10.208;2023-04-15T01:06:16;1.40;;;1.30;;
64894;SDS011;51588;53.702;10.208;2023-04-15T01:08:42;1.60;;;1.50;;
64894;SDS011;51588;53.702;10.208;2023-04-15T01:11:09;1.40;;;1.30;;
64894;SDS011;51588;53.702;10.208;2023-04-15T01:13:36;1.80;;;1.70;;
64894;SDS011;51588;53.702;10.208;2023-04-15T01:16:04;1.60;;;1.40;;
64894;SDS011;51588;53.702;10.208;2023-04-15T01:18:31;1.63;;;1.47;;
64894;SDS011;51588;53.702;10.208;2023-04-15T01:20:58;1.93;;;1.60;;
64894;SDS011;51588;53.702;10.208;2023-04-15T01:23:25;1.47;;;1.37;;
64894;SDS011;51588;53.702;10.208;2023-04-15T01:25:53;1.80;;;1.43;;
64894;SDS011;51588;53.702;10.208;2023-04-15T01:28:21;1.53;;;1.43;;
64894;SDS011;51588;53.702;10.208;2023-04-15T01:30:48;1.70;;;1.60;;
64894;SDS011;51588;53.702;10.208;2023-04-15T01:33:14;1.70;;;1.60;;
64894;SDS011;51588;53.702;10.208;2023-04-15T01:35:41;1.50;;;1.40;;
64894;SDS011;51588;53.702;10.208;2023-04-15T01:38:08;1.60;;;1.50;;
64894;SDS011;51588;53.702;10.208;2023-04-15T01:40:35;1.43;;;1.33;;
64894;SDS011;51588;53.702;10.208;2023-04-15T01:43:03;1.60;;;1.50;;
64894;SDS011;51588;53.702;10.208;2023-04-15T01:45:29;1.40;;;1.30;;
64894;SDS011;51588;53.702;10.208;2023-04-15T01:47:56;1.40;;;1.30;;
64894;SDS011;51588;53.702;10.208;2023-04-15T01:50:22;1.60;;;1.50;;
64894;SDS011;51588;53.702;10.208;2023-04-15T01:52:50;1.67;;;1.57;;
64894;SDS011;51588;53.702;10.208;2023-04-15T01:55:16;1.50;;;1.40;;
64894;SDS011;51588;53.702;10.208;2023-04-15T01:57:43;1.73;;;1.50;;
64894;SDS011;51588;53.702;10.208;2023-04-15T02:00:12;1.40;;;1.30;;
64894;SDS011;51588;53.702;10.208;2023-04-15T02:02:38;1.60;;;1.50;;
64894;SDS011;51588;53.702;10.208;2023-04-15T02:05:05;1.80;;;1.67;;
64894;SDS011;51588;53.702;10.208;2023-04-15T02:07:31;1.60;;;1.50;;
64894;SDS011;51588;53.702;10.208;2023-04-15T02:09:58;1.80;;;1.70;;
64894;SDS011;51588;53.702;10.208;2023-04-15T02:12:24;1.70;;;1.60;;
64894;SDS011;51588;53.702;10.208;2023-04-15T02:14:51;2.03;;;1.83;;
64894;SDS011;51588;53.702;10.208;2023-04-15T02:17:19;1.97;;;1.83;;
64894;SDS011;51588;53.702;10.208;2023-04-15T02:19:45;2.00;;;1.80;;
64894;SDS011;51588;53.702;10.208;2023-04-15T02:22:12;1.80;;;1.70;;
64894;SDS011;51588;53.702;10.208;2023-04-15T02:24:42;1.60;;;1.50;;
64894;SDS011;51588;53.702;10.208;2023-04-15T02:27:10;1.80;;;1.70;;
64894;SDS011;51588;53.702;10.208;2023-04-15T02:29:36;1.83;;;1.73;;
64894;SDS011;51588;53.702;10.208;2023-04-15T02:32:03;2.70;;;1.77;;
64894;SDS011;51588;53.702;10.208;2023-04-15T02:34:33;2.03;;;1.83;;
64894;SDS011;51588;53.702;10.208;2023-04-15T02:37:01;2.53;;;1.93;;
64894;SDS011;51588;53.702;10.208;2023-04-15T02:39:28;2.43;;;2.00;;
64894;SDS011;51588;53.702;10.208;2023-04-15T02:41:55;2.40;;;2.20;;
64894;SDS011;51588;53.702;10.208;2023-04-15T02:44:23;2.07;;;1.87;;
64894;SDS011;51588;53.702;10.208;2023-04-15T02:46:49;2.20;;;2.00;;
64894;SDS011;51588;53.702;10.208;2023-04-15T02:49:17;2.10;;;1.90;;
64894;SDS011;51588;53.702;10.208;2023-04-15T02:51:45;2.33;;;2.13;;
64894;SDS011;51588;53.702;10.208;2023-04-15T02:54:13;3.93;;;2.50;;
64894;SDS011;51588;53.702;10.208;2023-04-15T02:56:40;2.57;;;2.10;;
64894;SDS011;51588;53.702;10.208;2023-04-15T02:59:06;2.30;;;2.10;;
64894;SDS011;51588;53.702;10.208;2023-04-15T03:01:33;2.30;;;2.10;;
64894;SDS011;51588;53.702;10.208;2023-04-15T03:03:59;2.70;;;2.50;;
64894;SDS011;51588;53.702;10.208;2023-04-15T03:06:26;2.60;;;2.40;;
64894;SDS011;51588;53.702;10.208;2023-04-15T03:08:53;2.40;;;2.20;;
64894;SDS011;51588;53.702;10.208;2023-04-15T03:11:20;2.60;;;2.40;;
64894;SDS011;51588;53.702;10.208;2023-04-15T03:13:47;2.23;;;2.03;;
64894;SDS011;51588;53.702;10.208;2023-04-15T03:16:13;3.00;;;2.37;;
64894;SDS011;51588;53.702;10.208;2023-04-15T03:18:40;3.70;;;2.70;;
64894;SDS011;51588;53.702;10.208;2023-04-15T03:21:06;2.43;;;2.23;;
64894;SDS011;51588;53.702;10.208;2023-04-15T03:23:33;2.50;;;2.30;;
64894;SDS011;51588;53.702;10.208;2023-04-15T03:26:02;2.80;;;2.57;;
64894;SDS011;51588;53.702;10.208;2023-04-15T03:28:28;3.10;;;2.80;;
64894;SDS011;51588;53.702;10.208;2023-04-15T03:30:55;2.50;;;2.20;;
64894;SDS011;51588;53.702;10.208;2023-04-15T03:33:22;2.83;;;2.60;;
64894;SDS011;51588;53.702;10.208;2023-04-15T03:35:49;3.10;;;2.80;;
64894;SDS011;51588;53.702;10.208;2023-04-15T03:38:15;3.00;;;2.70;;
64894;SDS011;51588;53.702;10.208;2023-04-15T03:40:42;2.90;;;2.60;;
64894;SDS011;51588;53.702;10.208;2023-04-15T03:43:09;3.70;;;2.87;;
64894;SDS011;51588;53.702;10.208;2023-04-15T03:45:36;2.87;;;2.57;;
64894;SDS011;51588;53.702;10.208;2023-04-15T03:48:02;3.40;;;2.87;;
64894;SDS011;51588;53.702;10.208;2023-04-15T03:50:30;3.93;;;3.13;;
64894;SDS011;51588;53.702;10.208;2023-04-15T03:52:57;3.80;;;3.40;;
64894;SDS011;51588;53.702;10.208;2023-04-15T03:55:23;3.30;;;3.00;;
64894;SDS011;51588;53.702;10.208;2023-04-15T03:57:49;3.27;;;2.90;;
64894;SDS011;51588;53.702;10.208;2023-04-15T04:00:17;3.27;;;2.90;;
64894;SDS011;51588;53.702;10.208;2023-04-15T04:02:44;4.23;;;3.20;;
64894;SDS011;51588;53.702;10.208;2023-04-15T04:05:11;3.10;;;2.80;;
64894;SDS011;51588;53.702;10.208;2023-04-15T04:07:37;3.50;;;3.20;;
64894;SDS011;51588;53.702;10.208;2023-04-15T04:10:04;4.40;;;3.10;;
64894;SDS011;51588;53.702;10.208;2023-04-15T04:12:33;3.20;;;2.80;;
64894;SDS011;51588;53.702;10.208;2023-04-15T04:15:03;3.70;;;3.40;;
64894;SDS011;51588;53.702;10.208;2023-04-15T04:17:32;3.67;;;3.27;;
64894;SDS011;51588;53.702;10.208;2023-04-15T04:19:58;3.80;;;3.30;;
64894;SDS011;51588;53.702;10.208;2023-04-15T04:22:27;3.30;;;3.00;;
64894;SDS011;51588;53.702;10.208;2023-04-15T04:24:54;3.20;;;2.90;;
64894;SDS011;51588;53.702;10.208;2023-04-15T04:27:20;3.93;;;3.33;;
64894;SDS011;51588;53.702;10.208;2023-04-15T04:29:47;4.80;;;3.50;;
64894;SDS011;51588;53.702;10.208;2023-04-15T04:32:14;3.80;;;3.10;;
64894;SDS011;51588;53.702;10.208;2023-04-15T04:34:41;4.37;;;3.90;;
64894;SDS011;51588;53.702;10.208;2023-04-15T04:37:08;3.90;;;3.43;;
64894;SDS011;51588;53.702;10.208;2023-04-15T04:39:34;5.23;;;3.70;;
64894;SDS011;51588;53.702;10.208;2023-04-15T04:42:01;3.37;;;3.07;;
64894;SDS011;51588;53.702;10.208;2023-04-15T04:44:27;4.50;;;3.60;;
64894;SDS011;51588;53.702;10.208;2023-04-15T04:46:53;3.57;;;3.20;;
64894;SDS011;51588;53.702;10.208;2023-04-15T04:49:20;4.43;;;3.50;;
64894;SDS011;51588;53.702;10.208;2023-04-15T04:51:47;3.70;;;3.40;;
64894;SDS011;51588;53.702;10.208;2023-04-15T04:54:14;4.03;;;3.23;;
64894;SDS011;51588;53.702;10.208;2023-04-15T04:56:41;5.80;;;4.00;;
64894;SDS011;51588;53.702;10.208;2023-04-15T04:59:08;3.70;;;3.40;;
64894;SDS011;51588;53.702;10.208;2023-04-15T05:01:34;3.70;;;3.40;;
64894;SDS011;51588;53.702;10.208;2023-04-15T05:04:01;4.20;;;3.80;;
64894;SDS011;51588;53.702;10.208;2023-04-15T05:06:28;4.00;;;3.60;;
64894;SDS011;51588;53.702;10.208;2023-04-15T05:08:56;4.50;;;3.70;;
64894;SDS011;51588;53.702;10.208;2023-04-15T05:11:23;4.27;;;3.87;;
64894;SDS011;51588;53.702;10.208;2023-04-15T05:13:49;4.00;;;3.60;;
64894;SDS011;51588;53.702;10.208;2023-04-15T05:16:16;4.80;;;4.10;;
64894;SDS011;51588;53.702;10.208;2023-04-15T05:18:43;4.20;;;3.80;;
64894;SDS011;51588;53.702;10.208;2023-04-15T05:21:10;4.37;;;3.97;;
64894;SDS011;51588;53.702;10.208;2023-04-15T05:23:36;4.40;;;4.00;;
64894;SDS011;51588;53.702;10.208;2023-04-15T05:26:04;4.33;;;3.83;;
64894;SDS011;51588;53.702;10.208;2023-04-15T05:28:31;4.77;;;3.87;;
64894;SDS011;51588;53.702;10.208;2023-04-15T05:30:59;4.20;;;3.80;;
64894;SDS011;51588;53.702;10.208;2023-04-15T05:33:26;5.67;;;4.30;;
64894;SDS011;51588;53.702;10.208;2023-04-15T05:35:52;5.53;;;4.77;;
64894;SDS011;51588;53.702;10.208;2023-04-15T05:38:19;5.10;;;4.37;;
64894;SDS011;51588;53.702;10.208;2023-04-15T05:40:45;7.40;;;6.00;;
64894;SDS011;51588;53.702;10.208;2023-04-15T05:43:13;7.10;;;5.70;;
64894;SDS011;51588;53.702;10.208;2023-04-15T05:45:39;6.23;;;5.20;;
64894;SDS011;51588;53.702;10.208;2023-04-15T05:48:06;6.33;;;5.47;;
64894;SDS011;51588;53.702;10.208;2023-04-15T05:50:32;5.90;;;4.80;;
64894;SDS011;51588;53.702;10.208;2023-04-15T05:52:59;6.00;;;5.00;;
64894;SDS011;51588;53.702;10.208;2023-04-15T05:55:26;7.70;;;5.07;;
64894;SDS011;51588;53.702;10.208;2023-04-15T05:57:52;6.20;;;4.70;;
64894;SDS011;51588;53.702;10.208;2023-04-15T06:00:20;7.60;;;5.40;;
64894;SDS011;51588;53.702;10.208;2023-04-15T06:02:46;6.57;;;5.47;;
64894;SDS011;51588;53.702;10.208;2023-04-15T06:05:13;5.17;;;4.60;;
64894;SDS011;51588;53.702;10.208;2023-04-15T06:07:39;6.47;;;5.43;;
64894;SDS011;51588;53.702;10.208;2023-04-15T06:10:08;6.13;;;5.40;;
64894;SDS011;51588;53.702;10.208;2023-04-15T06:12:35;6.00;;;4.97;;
64894;SDS011;51588;53.702;10.208;2023-04-15T06:15:01;6.50;;;5.53;;
64894;SDS011;51588;53.702;10.208;2023-04-15T06:17:29;6.17;;;5.57;;
64894;SDS011;51588;53.702;10.208;2023-04-15T06:19:55;7.50;;;6.10;;
64894;SDS011;51588;53.702;10.208;2023-04-15T06:22:22;5.67;;;5.07;;
64894;SDS011;51588;53.702;10.208;2023-04-15T06:24:48;7.50;;;5.30;;
64894;SDS011;51588;53.702;10.208;2023-04-15T06:27:15;6.60;;;5.23;;
64894;SDS011;51588;53.702;10.208;2023-04-15T06:29:42;6.40;;;5.43;;
64894;SDS011;51588;53.702;10.208;2023-04-15T06:32:08;6.73;;;5.60;;
64894;SDS011;51588;53.702;10.208;2023-04-15T06:34:36;7.07;;;5.13;;
64894;SDS011;51588;53.702;10.208;2023-04-15T06:37:02;5.77;;;4.90;;
64894;SDS011;51588;53.702;10.208;2023-04-15T06:39:29;7.17;;;5.40;;
64894;SDS011;51588;53.702;10.208;2023-04-15T06:41:55;5.20;;;4.70;;
64894;SDS011;51588;53.702;10.208;2023-04-15T06:44:22;5.50;;;4.57;;
64894;SDS011;51588;53.702;10.208;2023-04-15T06:46:48;6.30;;;5.10;;
64894;SDS011;51588;53.702;10.208;2023-04-15T06:49:15;6.10;;;4.83;;
64894;SDS011;51588;53.702;10.208;2023-04-15T06:51:43;5.70;;;5.00;;
64894;SDS011;51588;53.702;10.208;2023-04-15T06:54:09;5.70;;;4.20;;
64894;SDS011;51588;53.702;10.208;2023-04-15T06:56:36;5.20;;;4.63;;
64894;SDS011;51588;53.702;10.208;2023-04-15T06:59:02;5.20;;;4.70;;
64894;SDS011;51588;53.702;10.208;2023-04-15T07:01:29;6.43;;;5.40;;
64894;SDS011;51588;53.702;10.208;2023-04-15T07:03:55;5.10;;;4.60;;
64894;SDS011;51588;53.702;10.208;2023-04-15T07:06:21;5.30;;;4.60;;
64894;SDS011;51588;53.702;10.208;2023-04-15T07:08:50;8.63;;;4.73;;
64894;SDS011;51588;53.702;10.208;2023-04-15T07:11:16;8.70;;;5.33;;
64894;SDS011;51588;53.702;10.208;2023-04-15T07:13:43;12.47;;;5.80;;
64894;SDS011;51588;53.702;10.208;2023-04-15T07:16:09;20.13;;;6.80;;
64894;SDS011;51588;53.702;10.208;2023-04-15T07:18:36;23.53;;;6.67;;
64894;SDS011;51588;53.702;10.208;2023-04-15T07:21:02;15.00;;;6.50;;
64894;SDS011;51588;53.702;10.208;2023-04-15T07:23:28;22.23;;;6.70;;
64894;SDS011;51588;53.702;10.208;2023-04-15T07:25:56;33.87;;;7.07;;
64894;SDS011;51588;53.702;10.208;2023-04-15T07:28:23;14.80;;;6.70;;
64894;SDS011;51588;53.702;10.208;2023-04-15T07:30:49;15.50;;;6.20;;
64894;SDS011;51588;53.702;10.208;2023-04-15T07:33:16;12.50;;;6.47;;
64894;SDS011;51588;53.702;10.208;2023-04-15T07:35:42;15.27;;;5.83;;
64894;SDS011;51588;53.702;10.208;2023-04-15T07:38:09;21.43;;;6.47;;
64894;SDS011;51588;53.702;10.208;2023-04-15T07:40:36;19.83;;;6.70;;
64894;SDS011;51588;53.702;10.208;2023-04-15T07:43:04;16.90;;;6.47;;
64894;SDS011;51588;53.702;10.208;2023-04-15T07:45:31;12.60;;;6.07;;
64894;SDS011;51588;53.702;10.208;2023-04-15T07:47:58;13.60;;;6.70;;
64894;SDS011;51588;53.702;10.208;2023-04-15T07:50:24;11.30;;;6.70;;
64894;SDS011;51588;53.702;10.208;2023-04-15T07:52:51;14.47;;;6.90;;
64894;SDS011;51588;53.702;10.208;2023-04-15T07:55:17;17.47;;;6.83;;
64894;SDS011;51588;53.702;10.208;2023-04-15T07:57:45;10.73;;;7.20;;
64894;SDS011;51588;53.702;10.208;2023-04-15T08:00:14;13.03;;;7.00;;
64894;SDS011;51588;53.702;10.208;2023-04-15T08:02:41;11.50;;;7.30;;
64894;SDS011;51588;53.702;10.208;2023-04-15T08:05:07;12.40;;;7.47;;
64894;SDS011;51588;53.702;10.208;2023-04-15T08:07:36;16.17;;;8.27;;
64894;SDS011;51588;53.702;10.208;2023-04-15T08:10:02;13.43;;;7.80;;
64894;SDS011;51588;53.702;10.208;2023-04-15T08:12:29;14.30;;;7.80;;
64894;SDS011;51588;53.702;10.208;2023-04-15T08:14:55;11.17;;;8.13;;
64894;SDS011;51588;53.702;10.208;2023-04-15T08:17:23;10.20;;;7.80;;
64894;SDS011;51588;53.702;10.208;2023-04-15T08:19:50;12.77;;;7.70;;
64894;SDS011;51588;53.702;10.208;2023-04-15T08:22:17;22.43;;;13.23;;
64894;SDS011;51588;53.702;10.208;2023-04-15T08:24:44;21.43;;;13.03;;
64894;SDS011;51588;53.702;10.208;2023-04-15T08:27:11;17.93;;;12.50;;
64894;SDS011;51588;53.702;10.208;2023-04-15T08:29:37;25.93;;;12.43;;
64894;SDS011;51588;53.702;10.208;2023-04-15T08:32:04;20.27;;;11.80;;
64894;SDS011;51588;53.702;10.208;2023-04-15T08:34:33;13.30;;;10.33;;
64894;SDS011;51588;53.702;10.208;2023-04-15T08:36:59;18.30;;;11.40;;
64894;SDS011;51588;53.702;10.208;2023-04-15T08:39:26;16.93;;;10.30;;
64894;SDS011;51588;53.702;10.208;2023-04-15T08:41:55;12.50;;;10.73;;
64894;SDS011;51588;53.702;10.208;2023-04-15T08:44:24;16.90;;;10.40;;
64894;SDS011;51588;53.702;10.208;2023-04-15T08:46:51;14.93;;;10.27;;
64894;SDS011;51588;53.702;10.208;2023-04-15T08:49:18;20.17;;;11.77;;
64894;SDS011;51588;53.702;10.208;2023-04-15T08:51:47;22.57;;;12.27;;
64894;SDS011;51588;53.702;10.208;2023-04-15T08:54:14;29.70;;;12.70;;
64894;SDS011;51588;53.702;10.208;2023-04-15T08:56:41;23.80;;;11.43;;
64894;SDS011;51588;53.702;10.208;2023-04-15T08:59:07;23.50;;;10.93;;
64894;SDS011;51588;53.702;10.208;2023-04-15T09:01:35;19.60;;;10.30;;
64894;SDS011;51588;53.702;10.208;2023-04-15T09:04:02;17.83;;;11.37;;
64894;SDS011;51588;53.702;10.208;2023-04-15T09:06:30;22.30;;;10.80;;
64894;SDS011;51588;53.702;10.208;2023-04-15T09:08:58;21.00;;;10.73;;
64894;SDS011;51588;53.702;10.208;2023-04-15T09:11:25;18.30;;;10.23;;
64894;SDS011;51588;53.702;10.208;2023-04-15T09:13:51;16.43;;;9.80;;
64894;SDS011;51588;53.702;10.208;2023-04-15T09:16:17;19.67;;;10.50;;
64894;SDS011;51588;53.702;10.208;2023-04-15T09:18:44;17.60;;;9.63;;
64894;SDS011;51588;53.702;10.208;2023-04-15T09:21:11;22.63;;;9.40;;
64894;SDS011;51588;53.702;10.208;2023-04-15T09:23:38;16.03;;;9.87;;
64894;SDS011;51588;53.702;10.208;2023-04-15T09:26:06;15.37;;;9.80;;
64894;SDS011;51588;53.702;10.208;2023-04-15T09:28:33;13.67;;;9.20;;
64894;SDS011;51588;53.702;10.208;2023-04-15T09:31:06;15.33;;;10.17;;
64894;SDS011;51588;53.702;10.208;2023-04-15T09:33:32;16.57;;;9.97;;
64894;SDS011;51588;53.702;10.208;2023-04-15T09:35:59;17.97;;;10.60;;
64894;SDS011;51588;53.702;10.208;2023-04-15T09:38:26;14.87;;;9.40;;
64894;SDS011;51588;53.702;10.208;2023-04-15T09:40:52;14.50;;;10.03;;
64894;SDS011;51588;53.702;10.208;2023-04-15T09:43:20;13.97;;;9.30;;
64894;SDS011;51588;53.702;10.208;2023-04-15T09:45:47;15.83;;;10.23;;
64894;SDS011;51588;53.702;10.208;2023-04-15T09:48:15;18.20;;;13.70;;
64894;SDS011;51588;53.702;10.208;2023-04-15T09:50:42;15.37;;;11.17;;
64894;SDS011;51588;53.702;10.208;2023-04-15T09:53:08;19.00;;;10.57;;
64894;SDS011;51588;53.702;10.208;2023-04-15T09:55:35;18.60;;;9.30;;
64894;SDS011;51588;53.702;10.208;2023-04-15T09:58:01;17.90;;;9.87;;
64894;SDS011;51588;53.702;10.208;2023-04-15T10:00:29;13.83;;;9.50;;
64894;SDS011;51588;53.702;10.208;2023-04-15T10:02:56;19.57;;;9.20;;
64894;SDS011;51588;53.702;10.208;2023-04-15T10:05:22;14.53;;;9.50;;
64894;SDS011;51588;53.702;10.208;2023-04-15T10:07:49;14.20;;;9.90;;
64894;SDS011;51588;53.702;10.208;2023-04-15T10:10:16;17.10;;;10.20;;
64894;SDS011;51588;53.702;10.208;2023-04-15T10:12:43;15.70;;;9.40;;
64894;SDS011;51588;53.702;10.208;2023-04-15T10:15:13;15.23;;;9.87;;
64894;SDS011;51588;53.702;10.208;2023-04-15T10:17:42;13.30;;;9.20;;
64894;SDS011;51588;53.702;10.208;2023-04-15T10:20:09;11.90;;;8.77;;
64894;SDS011;51588;53.702;10.208;2023-04-15T10:22:36;13.50;;;8.17;;
64894;SDS011;51588;53.702;10.208;2023-04-15T10:25:03;14.27;;;9.00;;
64894;SDS011;51588;53.702;10.208;2023-04-15T10:27:31;20.60;;;8.33;;
64894;SDS011;51588;53.702;10.208;2023-04-15T10:29:58;13.03;;;8.30;;
64894;SDS011;51588;53.702;10.208;2023-04-15T10:32:25;13.30;;;9.00;;
64894;SDS011;51588;53.702;10.208;2023-04-15T10:34:53;17.17;;;8.10;;
64894;SDS011;51588;53.702;10.208;2023-04-15T10:37:21;12.83;;;8.73;;
64894;SDS011;51588;53.702;10.208;2023-04-15T10:39:49;18.10;;;8.47;;
64894;SDS011;51588;53.702;10.208;2023-04-15T10:42:16;12.60;;;8.93;;
64894;SDS011;51588;53.702;10.208;2023-04-15T10:44:43;18.90;;;9.13;;
64894;SDS011;51588;53.702;10.208;2023-04-15T10:47:10;16.27;;;8.10;;
64894;SDS011;51588;53.702;10.208;2023-04-15T10:49:44;10.13;;;7.77;;
64894;SDS011;51588;53.702;10.208;2023-04-15T10:52:12;11.90;;;7.97;;
64894;SDS011;51588;53.702;10.208;2023-04-15T10:54:39;11.97;;;8.20;;
64894;SDS011;51588;53.702;10.208;2023-04-15T10:57:06;12.27;;;8.00;;
64894;SDS011;51588;53.702;10.208;2023-04-15T10:59:35;10.07;;;7.60;;
64894;SDS011;51588;53.702;10.208;2023-04-15T11:02:02;13.63;;;7.50;;
64894;SDS011;51588;53.702;10.208;2023-04-15T11:07:15;11.20;;;7.70;;
64894;SDS011;51588;53.702;10.208;2023-04-15T11:09:41;10.00;;;7.77;;
64894;SDS011;51588;53.702;10.208;2023-04-15T11:12:08;9.57;;;7.50;;
64894;SDS011;51588;53.702;10.208;2023-04-15T11:14:38;12.27;;;7.70;;
64894;SDS011;51588;53.702;10.208;2023-04-15T11:17:05;11.77;;;7.47;;
64894;SDS011;51588;53.702;10.208;2023-04-15T11:19:35;9.10;;;7.20;;
64894;SDS011;51588;53.702;10.208;2023-04-15T11:22:05;14.23;;;7.10;;
64894;SDS011;51588;53.702;10.208;2023-04-15T11:24:33;11.20;;;7.80;;
64894;SDS011;51588;53.702;10.208;2023-04-15T11:27:00;10.03;;;7.10;;
64894;SDS011;51588;53.702;10.208;2023-04-15T11:29:27;10.03;;;7.27;;
64894;SDS011;51588;53.702;10.208;2023-04-15T11:32:00;12.00;;;7.73;;
64894;SDS011;51588;53.702;10.208;2023-04-15T11:34:27;8.80;;;7.17;;
64894;SDS011;51588;53.702;10.208;2023-04-15T11:36:55;7.93;;;6.93;;
64894;SDS011;51588;53.702;10.208;2023-04-15T11:39:22;12.17;;;7.27;;
64894;SDS011;51588;53.702;10.208;2023-04-15T11:41:50;11.87;;;7.50;;
64894;SDS011;51588;53.702;10.208;2023-04-15T11:44:16;8.10;;;6.90;;
64894;SDS011;51588;53.702;10.208;2023-04-15T11:46:43;9.43;;;7.40;;
64894;SDS011;51588;53.702;10.208;2023-04-15T11:49:09;10.50;;;7.80;;
64894;SDS011;51588;53.702;10.208;2023-04-15T11:51:36;9.47;;;7.27;;
64894;SDS011;51588;53.702;10.208;2023-04-15T11:54:02;7.00;;;6.30;;
64894;SDS011;51588;53.702;10.208;2023-04-15T11:56:29;13.17;;;7.43;;
64894;SDS011;51588;53.702;10.208;2023-04-15T11:58:57;8.30;;;7.13;;
64894;SDS011;51588;53.702;10.208;2023-04-15T12:01:29;9.33;;;6.80;;
64894;SDS011;51588;53.702;10.208;2023-04-15T12:03:56;8.30;;;6.57;;
64894;SDS011;51588;53.702;10.208;2023-04-15T12:06:23;7.30;;;6.60;;
64894;SDS011;51588;53.702;10.208;2023-04-15T12:08:56;10.23;;;6.90;;
64894;SDS011;51588;53.702;10.208;2023-04-15T12:11:27;7.03;;;6.33;;
64894;SDS011;51588;53.702;10.208;2023-04-15T12:13:54;6.90;;;6.13;;
64894;SDS011;51588;53.702;10.208;2023-04-15T12:16:23;7.77;;;6.97;;
64894;SDS011;51588;53.702;10.208;2023-04-15T12:18:49;8.80;;;7.13;;
64894;SDS011;51588;53.702;10.208;2023-04-15T12:21:17;9.77;;;7.30;;
64894;SDS011;51588;53.702;10.208;2023-04-15T12:23:47;8.10;;;7.30;;
64894;SDS011;51588;53.702;10.208;2023-04-15T12:26:14;8.17;;;6.60;;
64894;SDS011;51588;53.702;10.208;2023-04-15T12:28:40;8.53;;;7.20;;
64894;SDS011;51588;53.702;10.208;2023-04-15T12:31:07;7.73;;;6.93;;
64894;SDS011;51588;53.702;10.208;2023-04-15T12:33:34;8.30;;;7.20;;
64894;SDS011;51588;53.702;10.208;2023-04-15T12:36:01;13.83;;;7.47;;
64894;SDS011;51588;53.702;10.208;2023-04-15T12:38:28;10.40;;;7.30;;
64894;SDS011;51588;53.702;10.208;2023-04-15T12:40:55;10.30;;;7.97;;
64894;SDS011;51588;53.702;10.208;2023-04-15T12:43:22;10.23;;;7.37;;
64894;SDS011;51588;53.702;10.208;2023-04-15T12:45:48;10.37;;;6.87;;
64894;SDS011;51588;53.702;10.208;2023-04-15T12:48:15;11.87;;;7.33;;
64894;SDS011;51588;53.702;10.208;2023-04-15T12:50:42;13.03;;;7.53;;
64894;SDS011;51588;53.702;10.208;2023-04-15T12:53:09;14.30;;;7.10;;
64894;SDS011;51588;53.702;10.208;2023-04-15T12:55:35;11.00;;;6.67;;
64894;SDS011;51588;53.702;10.208;2023-04-15T12:58:02;9.13;;;6.73;;
64894;SDS011;51588;53.702;10.208;2023-04-15T13:00:28;8.67;;;7.17;;
64894;SDS011;51588;53.702;10.208;2023-04-15T13:02:55;14.63;;;7.53;;
64894;SDS011;51588;53.702;10.208;2023-04-15T13:05:21;11.00;;;7.50;;
64894;SDS011;51588;53.702;10.208;2023-04-15T13:07:49;16.40;;;7.67;;
64894;SDS011;51588;53.702;10.208;2023-04-15T13:10:15;13.03;;;7.03;;
64894;SDS011;51588;53.702;10.208;2023-04-15T13:12:42;14.10;;;9.13;;
64894;SDS011;51588;53.702;10.208;2023-04-15T13:15:11;11.53;;;7.60;;
64894;SDS011;51588;53.702;10.208;2023-04-15T13:17:37;12.70;;;7.73;;
64894;SDS011;51588;53.702;10.208;2023-04-15T13:20:04;14.63;;;8.50;;
64894;SDS011;51588;53.702;10.208;2023-04-15T13:22:31;9.97;;;7.00;;
64894;SDS011;51588;53.702;10.208;2023-04-15T13:24:58;9.87;;;7.10;;
64894;SDS011;51588;53.702;10.208;2023-04-15T13:27:25;11.40;;;7.60;;
64894;SDS011;51588;53.702;10.208;2023-04-15T13:29:51;11.43;;;8.20;;
64894;SDS011;51588;53.702;10.208;2023-04-15T13:32:18;13.27;;;9.00;;
64894;SDS011;51588;53.702;10.208;2023-04-15T13:34:44;9.70;;;6.90;;
64894;SDS011;51588;53.702;10.208;2023-04-15T13:37:11;10.50;;;7.50;;
64894;SDS011;51588;53.702;10.208;2023-04-15T13:39:37;8.17;;;7.33;;
64894;SDS011;51588;53.702;10.208;2023-04-15T13:42:05;8.57;;;7.13;;
64894;SDS011;51588;53.702;10.208;2023-04-15T13:44:31;10.80;;;7.00;;
64894;SDS011;51588;53.702;10.208;2023-04-15T13:46:58;9.47;;;6.97;;
64894;SDS011;51588;53.702;10.208;2023-04-15T13:49:24;9.33;;;6.93;;
64894;SDS011;51588;53.702;10.208;2023-04-15T13:51:51;12.80;;;7.33;;
64894;SDS011;51588;53.702;10.208;2023-04-15T13:54:17;8.67;;;6.80;;
64894;SDS011;51588;53.702;10.208;2023-04-15T13:56:44;10.53;;;7.20;;
64894;SDS011;51588;53.702;10.208;2023-04-15T13:59:11;13.50;;;6.93;;
64894;SDS011;51588;53.702;10.208;2023-04-15T14:01:38;10.50;;;6.77;;
64894;SDS011;51588;53.702;10.208;2023-04-15T14:04:05;18.83;;;6.77;;
64894;SDS011;51588;53.702;10.208;2023-04-15T14:06:31;7.53;;;6.20;;
64894;SDS011;51588;53.702;10.208;2023-04-15T14:08:58;9.37;;;7.67;;
64894;SDS011;51588;53.702;10.208;2023-04-15T14:11:24;10.53;;;7.17;;
64894;SDS011;51588;53.702;10.208;2023-04-15T14:13:51;7.70;;;6.90;;
64894;SDS011;51588;53.702;10.208;2023-04-15T14:16:18;8.73;;;6.57;;
64894;SDS011;51588;53.702;10.208;2023-04-15T14:18:45;7.67;;;6.87;;
64894;SDS011;51588;53.702;10.208;2023-04-15T14:21:11;10.07;;;7.00;;
64894;SDS011;51588;53.702;10.208;2023-04-15T14:23:38;7.50;;;6.80;;
64894;SDS011;51588;53.702;10.208;2023-04-15T14:26:04;7.80;;;6.77;;
64894;SDS011;51588;53.702;10.208;2023-04-15T14:28:31;7.93;;;7.13;;